aviador You're here:

KGPH Decoded Metar

in
Report Time2017-07-21 08:35:00
UTC Time2017-07-21 08:39:23
Flight Rules vfr VFR
WindCalm
Visibility9999 m
Phenomena:N/A
Clouds:N/A
Expected CloudBase > 1,600 ft AGL from Temp-Dew spread
CeilingNone
Temp26°C
Dew Point22°C (79% RH)
QNH1014 hPa
Raw Report
KGPH 210835Z AUTO 00000KT 10SM CLR 26/22 A2994 RMK AO2=

Extra information for KGPH:More info

Social comments